Time;durP1;ratioP1;P1;durP2;ratioP2;P2;SDS_P1;SDS_P2;PMS_P1;PMS_P2;Temp;Humidity;BMP_temperature;BMP_pressure;BME280_temperature;BME280_humidity;BME280_pressure;Samples;Min_cycle;Max_cycle;Signal;HPM_P1;HPM_P2
2024/02/14 00:00:59;;;;;;;5.95;4.80;;;8.60;99.90;;;;;;5073842;28;20642;-75
2024/02/14 00:03:26;;;;;;;8.55;4.78;;;8.50;99.90;;;;;;5071922;28;20216;-72
2024/02/14 00:05:54;;;;;;;5.80;4.50;;;8.60;99.90;;;;;;5069274;28;20529;-73
2024/02/14 00:08:21;;;;;;;7.78;4.10;;;8.60;99.90;;;;;;5063773;28;20616;-72
2024/02/14 00:10:48;;;;;;;6.70;4.97;;;8.60;99.90;;;;;;5063385;28;20207;-73
2024/02/14 00:13:18;;;;;;;6.22;5.18;;;8.50;99.90;;;;;;5074521;28;20219;-73
2024/02/14 00:15:46;;;;;;;7.35;5.20;;;8.60;99.90;;;;;;5073209;28;20229;-73
2024/02/14 00:18:15;;;;;;;5.68;4.70;;;8.60;99.90;;;;;;5073089;28;20246;-71
2024/02/14 00:20:42;;;;;;;6.32;4.85;;;8.60;99.90;;;;;;5070192;28;20242;-72
2024/02/14 00:23:09;;;;;;;7.90;5.45;;;8.50;99.90;;;;;;5070020;28;20296;-73
2024/02/14 00:25:36;;;;;;;5.63;5.13;;;8.50;99.90;;;;;;5073806;28;20211;-74
2024/02/14 00:28:03;;;;;;;5.60;4.35;;;8.40;99.90;;;;;;5073747;28;20204;-71
2024/02/14 00:30:30;;;;;;;5.20;4.30;;;8.50;99.90;;;;;;5065990;28;20203;-73
2024/02/14 00:32:57;;;;;;;4.80;4.03;;;8.50;99.90;;;;;;5066956;28;20231;-75
2024/02/14 00:35:26;;;;;;;4.72;4.22;;;8.40;99.90;;;;;;5064615;28;20239;-74
2024/02/14 00:37:53;;;;;;;5.32;4.50;;;8.50;99.90;;;;;;5071186;28;20195;-73
2024/02/14 00:40:20;;;;;;;5.15;3.83;;;8.60;99.90;;;;;;5067300;28;20231;-74
2024/02/14 00:42:48;;;;;;;5.50;4.22;;;8.50;99.90;;;;;;5073830;28;20649;-75
2024/02/14 00:45:15;;;;;;;6.97;4.50;;;8.60;99.90;;;;;;5069567;28;20203;-73
2024/02/14 00:47:42;;;;;;;7.03;4.47;;;8.60;99.90;;;;;;5073758;28;20256;-72
2024/02/14 00:50:09;;;;;;;5.50;4.15;;;8.60;99.90;;;;;;5072350;28;20715;-73
2024/02/14 00:52:38;;;;;;;6.35;4.82;;;8.60;99.90;;;;;;5072984;28;20677;-74
2024/02/14 00:55:05;;;;;;;5.10;4.35;;;8.50;99.90;;;;;;5072105;28;20199;-73
2024/02/14 00:57:33;;;;;;;6.22;4.63;;;8.60;99.90;;;;;;5066872;28;20208;-72
2024/02/14 01:00:00;;;;;;;8.77;4.93;;;8.50;99.90;;;;;;5071642;28;20701;-72
2024/02/14 01:02:27;;;;;;;7.25;5.15;;;8.50;99.90;;;;;;5072490;28;20215;-74
2024/02/14 01:04:54;;;;;;;6.57;4.53;;;8.40;99.90;;;;;;5073316;28;20235;-74
2024/02/14 01:07:21;;;;;;;5.07;4.30;;;8.50;99.90;;;;;;5073461;28;20231;-74
2024/02/14 01:09:49;;;;;;;8.82;3.97;;;8.40;99.90;;;;;;5072300;28;20662;-73
2024/02/14 01:12:17;;;;;;;4.60;4.20;;;8.40;99.90;;;;;;5069068;28;20219;-77
2024/02/14 01:14:43;;;;;;;9.10;5.68;;;8.50;99.90;;;;;;5073045;28;20199;-75
2024/02/14 01:17:11;;;;;;;7.10;5.15;;;8.50;99.90;;;;;;5072986;28;20533;-73
2024/02/14 01:19:38;;;;;;;8.90;4.70;;;8.40;99.90;;;;;;5071379;28;20280;-75
2024/02/14 01:22:06;;;;;;;12.38;5.97;;;8.30;99.90;;;;;;5072901;28;20199;-75
2024/02/14 01:24:33;;;;;;;7.38;6.57;;;8.20;99.90;;;;;;5064309;28;20239;-76
2024/02/14 01:27:02;;;;;;;9.10;6.38;;;8.20;99.90;;;;;;5072599;28;20264;-73
2024/02/14 01:29:29;;;;;;;9.18;5.10;;;8.10;99.90;;;;;;5063818;28;20273;-74
2024/02/14 01:31:56;;;;;;;7.70;5.05;;;8.10;99.90;;;;;;5067039;28;20609;-75
2024/02/14 01:34:23;;;;;;;5.65;4.95;;;8.10;99.90;;;;;;5069538;28;20202;-73
2024/02/14 01:36:50;;;;;;;7.75;4.88;;;8.10;99.90;;;;;;5070161;28;20213;-74
2024/02/14 01:39:18;;;;;;;10.27;6.40;;;8.00;99.90;;;;;;5066944;28;20755;-75
2024/02/14 01:41:48;;;;;;;11.90;6.78;;;8.10;99.90;;;;;;5072804;28;20637;-73
2024/02/14 01:44:17;;;;;;;7.88;5.53;;;8.10;99.90;;;;;;5059556;28;20728;-75
2024/02/14 01:46:44;;;;;;;7.50;5.65;;;8.10;99.90;;;;;;5071692;28;20620;-74
2024/02/14 01:49:12;;;;;;;8.75;6.43;;;8.10;99.90;;;;;;5072514;28;20269;-75
2024/02/14 01:51:41;;;;;;;7.05;5.32;;;8.10;99.90;;;;;;5070072;28;20690;-75
2024/02/14 01:54:10;;;;;;;8.95;5.82;;;8.10;99.90;;;;;;5067089;28;20258;-73
2024/02/14 01:56:37;;;;;;;6.65;4.97;;;8.00;99.90;;;;;;5064530;28;20202;-74
2024/02/14 01:59:05;;;;;;;8.45;6.40;;;8.00;99.90;;;;;;5065324;28;20261;-74
2024/02/14 02:01:33;;;;;;;8.27;6.43;;;8.00;99.90;;;;;;5070490;28;20605;-74
2024/02/14 02:04:01;;;;;;;7.90;7.10;;;7.90;99.90;;;;;;5059779;28;20310;-75
2024/02/14 02:06:28;;;;;;;8.50;6.50;;;7.90;99.90;;;;;;5072286;28;20195;-74
2024/02/14 02:08:56;;;;;;;6.47;4.78;;;8.00;99.90;;;;;;5069716;28;20250;-72
2024/02/14 02:11:23;;;;;;;10.68;6.25;;;8.00;99.90;;;;;;5067455;28;20571;-74
2024/02/14 02:13:49;;;;;;;9.77;6.38;;;8.00;99.90;;;;;;5072305;28;20223;-76
2024/02/14 02:16:18;;;;;;;7.70;6.82;;;8.00;99.90;;;;;;5070839;28;20697;-74
2024/02/14 02:18:48;;;;;;;6.38;5.63;;;7.90;99.90;;;;;;5071659;28;20207;-75
2024/02/14 02:21:15;;;;;;;8.90;6.88;;;7.90;99.90;;;;;;5071973;28;20195;-75
2024/02/14 02:23:45;;;;;;;7.40;6.70;;;7.90;99.90;;;;;;5072086;28;20231;-74
2024/02/14 02:26:12;;;;;;;9.38;7.13;;;7.90;99.90;;;;;;5069490;28;20261;-76
2024/02/14 02:28:40;;;;;;;10.63;7.43;;;7.90;99.90;;;;;;5072375;28;20204;-76
2024/02/14 02:31:09;;;;;;;9.27;5.60;;;7.90;99.90;;;;;;5066979;28;20210;-75
2024/02/14 02:33:35;;;;;;;8.52;7.15;;;7.80;99.90;;;;;;5066055;28;20219;-74
2024/02/14 02:36:02;;;;;;;11.07;8.75;;;7.80;99.90;;;;;;5071920;28;20712;-75
2024/02/14 02:38:29;;;;;;;8.82;7.72;;;7.80;99.90;;;;;;5070459;28;20200;-73
2024/02/14 02:40:58;;;;;;;12.35;5.78;;;7.80;99.90;;;;;;5072249;28;20215;-75
2024/02/14 02:43:25;;;;;;;8.75;6.90;;;7.90;99.90;;;;;;5068808;28;20286;-75
2024/02/14 02:45:52;;;;;;;9.75;8.40;;;7.80;99.90;;;;;;5072506;28;20253;-74
2024/02/14 02:48:20;;;;;;;10.43;7.85;;;7.70;99.90;;;;;;5071705;28;20261;-74
2024/02/14 02:50:49;;;;;;;15.98;8.02;;;7.80;99.90;;;;;;5070387;28;20203;-75
2024/02/14 02:53:16;;;;;;;9.27;7.85;;;7.80;99.90;;;;;;5071903;28;20694;-73
2024/02/14 02:55:43;;;;;;;12.55;9.38;;;7.70;99.90;;;;;;5071224;28;20204;-75
2024/02/14 02:58:13;;;;;;;12.68;9.00;;;7.60;99.90;;;;;;5071871;28;20249;-75
2024/02/14 03:00:40;;;;;;;13.45;10.38;;;7.60;99.90;;;;;;5067255;28;20220;-75
2024/02/14 03:03:10;;;;;;;10.60;9.32;;;7.60;99.90;;;;;;5063440;28;20224;-74
2024/02/14 03:05:38;;;;;;;15.48;10.75;;;7.60;99.90;;;;;;5069934;28;20210;-73
2024/02/14 03:08:07;;;;;;;13.27;9.77;;;7.60;99.90;;;;;;5072105;28;20214;-75
2024/02/14 03:10:34;;;;;;;13.20;10.35;;;7.60;99.90;;;;;;5070857;28;20573;-76
2024/02/14 03:13:01;;;;;;;15.02;10.52;;;7.60;99.90;;;;;;5069313;28;20227;-75
2024/02/14 03:15:29;;;;;;;15.23;10.70;;;7.60;99.90;;;;;;5074408;28;20211;-75
2024/02/14 03:17:57;;;;;;;16.88;11.65;;;7.60;99.90;;;;;;5073247;28;20290;-73
2024/02/14 03:20:24;;;;;;;12.18;9.25;;;7.50;99.90;;;;;;5072861;28;20727;-75
2024/02/14 03:22:51;;;;;;;11.20;9.50;;;7.50;99.90;;;;;;5075179;28;20223;-72
2024/02/14 03:25:19;;;;;;;17.27;10.85;;;7.50;99.90;;;;;;5075496;28;20700;-76
2024/02/14 03:27:49;;;;;;;15.90;11.55;;;7.60;99.90;;;;;;5074878;28;20204;-74
2024/02/14 03:30:16;;;;;;;13.15;10.50;;;7.50;99.90;;;;;;5068789;28;20279;-74
2024/02/14 03:32:46;;;;;;;16.45;12.05;;;7.50;99.90;;;;;;5072876;28;20568;-75
2024/02/14 03:35:14;;;;;;;16.58;11.02;;;7.50;99.90;;;;;;5073413;28;20203;-72
2024/02/14 03:37:42;;;;;;;14.50;11.77;;;7.50;99.90;;;;;;5074041;28;20261;-75
2024/02/14 03:40:10;;;;;;;19.55;11.18;;;7.50;99.90;;;;;;5072675;28;20227;-74
2024/02/14 03:42:39;;;;;;;19.40;14.77;;;7.50;99.90;;;;;;5074313;28;20254;-73
2024/02/14 03:45:07;;;;;;;14.82;12.25;;;7.40;99.90;;;;;;5075032;28;20270;-74
2024/02/14 03:47:34;;;;;;;16.65;13.25;;;7.40;99.90;;;;;;5074879;28;20199;-74
2024/02/14 03:50:04;;;;;;;14.88;12.55;;;7.40;99.90;;;;;;5074311;28;20269;-75
2024/02/14 03:52:32;;;;;;;14.70;11.68;;;7.40;99.90;;;;;;5071193;28;20224;-75
2024/02/14 03:55:00;;;;;;;18.42;12.57;;;7.40;99.90;;;;;;5074501;28;20200;-76
2024/02/14 03:57:28;;;;;;;19.15;13.50;;;7.40;99.90;;;;;;5074216;28;20199;-73
2024/02/14 03:59:55;;;;;;;17.33;12.02;;;7.40;99.90;;;;;;5073870;28;20219;-73
2024/02/14 04:02:23;;;;;;;14.30;12.15;;;7.50;99.90;;;;;;5072163;28;20246;-76
2024/02/14 04:04:50;;;;;;;13.68;12.27;;;7.50;99.90;;;;;;5074325;28;20261;-74
2024/02/14 04:07:18;;;;;;;18.00;14.10;;;7.40;99.90;;;;;;5065279;28;20701;-74
2024/02/14 04:09:45;;;;;;;17.70;14.00;;;7.40;99.90;;;;;;5070615;28;20199;-74
2024/02/14 04:12:13;;;;;;;16.55;13.88;;;7.40;99.90;;;;;;5072887;28;20215;-74
2024/02/14 04:14:40;;;;;;;19.90;13.25;;;7.40;99.90;;;;;;5067696;28;20545;-74
2024/02/14 04:17:08;;;;;;;14.55;11.27;;;7.40;99.90;;;;;;5070839;28;20200;-74
2024/02/14 04:19:35;;;;;;;13.70;11.43;;;7.50;99.90;;;;;;5068060;28;20203;-74
2024/02/14 04:22:02;;;;;;;17.35;13.82;;;7.50;99.90;;;;;;5072399;28;20235;-74
2024/02/14 04:24:33;;;;;;;15.45;11.07;;;7.50;99.90;;;;;;5069973;28;20215;-74
2024/02/14 04:27:02;;;;;;;18.30;12.15;;;7.60;99.90;;;;;;5073882;28;20203;-74
2024/02/14 04:29:32;;;;;;;17.75;13.80;;;7.50;99.90;;;;;;5073320;28;20204;-72
2024/02/14 04:31:59;;;;;;;14.50;12.68;;;7.60;99.90;;;;;;5068920;28;20241;-75
2024/02/14 04:34:27;;;;;;;16.50;13.70;;;7.60;99.90;;;;;;5074650;28;20229;-72
2024/02/14 04:36:54;;;;;;;12.70;11.38;;;7.60;99.90;;;;;;5069092;28;20208;-75
2024/02/14 04:39:21;;;;;;;17.00;14.10;;;7.60;99.90;;;;;;5073156;28;20211;-74
2024/02/14 04:41:50;;;;;;;15.40;12.65;;;7.60;99.90;;;;;;5073815;28;20227;-74
2024/02/14 04:44:17;;;;;;;13.32;11.93;;;7.60;99.90;;;;;;5067994;28;20251;-75
2024/02/14 04:46:44;;;;;;;16.00;14.07;;;7.70;99.90;;;;;;5073562;28;20280;-76
2024/02/14 04:49:11;;;;;;;20.38;13.63;;;7.70;99.90;;;;;;5072651;28;20250;-73
2024/02/14 04:51:39;;;;;;;20.38;14.57;;;7.70;99.90;;;;;;5065492;28;20200;-74
2024/02/14 04:54:07;;;;;;;14.63;13.07;;;7.70;99.90;;;;;;5072921;28;20263;-73
2024/02/14 04:56:34;;;;;;;20.83;13.18;;;7.80;99.90;;;;;;5069526;28;20233;-74
2024/02/14 04:59:02;;;;;;;15.48;13.18;;;7.80;99.90;;;;;;5073633;28;20237;-72
2024/02/14 05:01:29;;;;;;;17.50;14.23;;;7.80;99.90;;;;;;5069540;28;20318;-75
2024/02/14 05:03:56;;;;;;;14.43;12.55;;;7.80;99.90;;;;;;5066061;28;20227;-74
2024/02/14 05:06:23;;;;;;;24.73;15.35;;;7.80;99.90;;;;;;5071959;28;20552;-74
2024/02/14 05:08:51;;;;;;;20.10;16.15;;;7.80;99.90;;;;;;5070476;28;20204;-74
2024/02/14 05:11:18;;;;;;;16.80;12.65;;;7.70;99.90;;;;;;5067108;28;20203;-74
2024/02/14 05:13:46;;;;;;;15.77;11.50;;;7.70;99.90;;;;;;5072635;28;20223;-72
2024/02/14 05:16:18;;;;;;;15.95;14.18;;;7.70;99.90;;;;;;5073210;28;20207;-73
2024/02/14 05:18:46;;;;;;;19.67;15.95;;;7.80;99.90;;;;;;5071286;28;20207;-73
2024/02/14 05:21:13;;;;;;;17.25;14.57;;;7.80;99.90;;;;;;5071073;28;20216;-72
2024/02/14 05:23:40;;;;;;;20.80;16.75;;;7.80;99.90;;;;;;5072986;28;20709;-73
2024/02/14 05:26:07;;;;;;;21.02;14.00;;;7.90;99.90;;;;;;5071234;28;20211;-75
2024/02/14 05:28:34;;;;;;;23.13;15.48;;;7.90;99.90;;;;;;5072184;28;20213;-73
2024/02/14 05:31:09;;;;;;;14.65;13.10;;;7.90;99.90;;;;;;5071396;28;20260;-73
2024/02/14 05:33:38;;;;;;;18.08;13.60;;;7.90;99.90;;;;;;5072255;28;20230;-72
2024/02/14 05:36:06;;;;;;;17.80;13.85;;;7.90;99.90;;;;;;5071699;28;20211;-74
2024/02/14 05:38:34;;;;;;;12.23;11.00;;;8.00;99.90;;;;;;5072252;28;20195;-74
2024/02/14 05:41:01;;;;;;;17.08;15.27;;;8.10;99.90;;;;;;5063732;28;20219;-73
2024/02/14 05:43:28;;;;;;;19.27;15.10;;;8.10;99.90;;;;;;5069481;28;20305;-75
2024/02/14 05:45:55;;;;;;;14.77;12.65;;;8.10;99.90;;;;;;5070867;28;20272;-75
2024/02/14 05:48:22;;;;;;;15.38;12.30;;;8.20;99.90;;;;;;5063117;28;20212;-74
2024/02/14 05:50:51;;;;;;;16.98;15.18;;;8.20;99.90;;;;;;5071010;28;20547;-72
2024/02/14 05:53:17;;;;;;;14.23;12.73;;;8.30;99.90;;;;;;5069369;28;20759;-73
2024/02/14 05:55:45;;;;;;;14.48;12.73;;;8.40;99.90;;;;;;5073429;28;20191;-74
2024/02/14 05:58:12;;;;;;;14.80;13.13;;;8.40;99.90;;;;;;5070408;28;21573;-75
2024/02/14 06:00:39;;;;;;;14.15;12.30;;;8.50;99.90;;;;;;5067345;28;20698;-75
2024/02/14 06:03:07;;;;;;;17.73;15.13;;;8.50;99.90;;;;;;5065550;28;20304;-74
2024/02/14 06:05:35;;;;;;;14.75;13.25;;;8.50;99.90;;;;;;5068273;28;20239;-75
2024/02/14 06:08:04;;;;;;;14.00;12.32;;;8.60;99.90;;;;;;5064373;28;20257;-76
2024/02/14 06:10:31;;;;;;;19.55;16.00;;;8.60;99.90;;;;;;5063795;28;20308;-76
2024/02/14 06:12:58;;;;;;;13.02;11.60;;;8.60;99.90;;;;;;5072124;28;20227;-76
2024/02/14 06:15:26;;;;;;;14.68;12.77;;;8.60;99.90;;;;;;5072250;28;20318;-74
2024/02/14 06:17:53;;;;;;;12.77;11.38;;;8.70;99.90;;;;;;5071383;28;20210;-73
2024/02/14 06:20:20;;;;;;;15.68;12.80;;;8.60;99.90;;;;;;5071736;28;20203;-72
2024/02/14 06:22:47;;;;;;;15.60;13.65;;;8.70;99.90;;;;;;5071587;28;20235;-73
2024/02/14 06:25:16;;;;;;;16.73;14.85;;;8.80;99.90;;;;;;5069768;28;20238;-74
2024/02/14 06:27:43;;;;;;;15.68;13.65;;;8.80;99.90;;;;;;5071871;28;20195;-75
2024/02/14 06:30:11;;;;;;;16.73;14.93;;;8.80;99.90;;;;;;5071584;28;20241;-74
2024/02/14 06:32:38;;;;;;;18.25;15.70;;;8.90;99.90;;;;;;5071887;28;20231;-74
2024/02/14 06:35:06;;;;;;;20.08;15.23;;;8.80;99.90;;;;;;5070189;28;20207;-72
2024/02/14 06:37:33;;;;;;;18.77;16.05;;;8.90;99.90;;;;;;5073226;28;20214;-74
2024/02/14 06:40:00;;;;;;;15.57;13.50;;;8.90;99.90;;;;;;5070054;28;20348;-74
2024/02/14 06:42:29;;;;;;;17.77;14.32;;;9.00;99.90;;;;;;5067467;28;20309;-74
2024/02/14 06:44:56;;;;;;;13.55;12.18;;;9.10;99.90;;;;;;5070020;28;20690;-75
2024/02/14 06:47:23;;;;;;;15.45;13.80;;;9.10;99.90;;;;;;5069478;28;20654;-76
2024/02/14 06:49:50;;;;;;;16.17;14.35;;;9.10;99.90;;;;;;5072037;28;20211;-74
2024/02/14 06:52:17;;;;;;;17.85;14.65;;;9.20;99.90;;;;;;5074855;28;20285;-73
2024/02/14 06:54:45;;;;;;;16.25;14.18;;;9.30;99.90;;;;;;5071578;28;20211;-73
2024/02/14 06:57:12;;;;;;;15.95;14.05;;;9.30;99.90;;;;;;5074418;28;20268;-75
2024/02/14 06:59:40;;;;;;;15.77;14.07;;;9.30;99.90;;;;;;5074044;28;20715;-74
2024/02/14 07:02:07;;;;;;;20.58;16.23;;;9.40;99.90;;;;;;5066958;28;20705;-75
2024/02/14 07:04:34;;;;;;;16.70;14.77;;;9.30;99.90;;;;;;5071270;28;20204;-75
2024/02/14 07:07:01;;;;;;;21.80;17.70;;;9.30;99.90;;;;;;5066455;28;20617;-76
2024/02/14 07:09:28;;;;;;;18.38;14.95;;;9.30;99.90;;;;;;5071174;28;20270;-74
2024/02/14 07:11:56;;;;;;;14.65;13.15;;;9.40;99.90;;;;;;5074042;28;20214;-75
2024/02/14 07:14:23;;;;;;;14.55;12.93;;;9.40;99.90;;;;;;5070152;28;20199;-75
2024/02/14 07:16:52;;;;;;;14.40;12.90;;;9.40;99.90;;;;;;5073199;28;20200;-75
2024/02/14 07:19:19;;;;;;;20.73;16.20;;;9.40;99.90;;;;;;5073639;28;20203;-76
2024/02/14 07:21:46;;;;;;;16.00;14.30;;;9.40;99.90;;;;;;5076070;28;20261;-77
2024/02/14 07:24:13;;;;;;;17.48;13.75;;;9.40;99.90;;;;;;5078121;28;20231;-75
2024/02/14 07:26:41;;;;;;;15.75;12.65;;;9.50;99.90;;;;;;5070091;28;20257;-73
2024/02/14 07:29:08;;;;;;;18.83;15.23;;;9.50;99.90;;;;;;5070332;28;20207;-73
2024/02/14 07:31:35;;;;;;;15.63;13.27;;;9.50;99.90;;;;;;5063847;28;20200;-73
2024/02/14 07:34:03;;;;;;;13.68;11.48;;;9.50;99.90;;;;;;5073223;28;20230;-75
2024/02/14 07:36:30;;;;;;;19.52;13.48;;;9.50;99.90;;;;;;5067416;28;20632;-75
2024/02/14 07:38:58;;;;;;;15.05;12.18;;;9.50;99.90;;;;;;5072226;28;20262;-74
2024/02/14 07:41:25;;;;;;;18.52;13.98;;;9.50;99.90;;;;;;5074311;28;20219;-76
2024/02/14 07:43:52;;;;;;;14.70;12.85;;;9.60;99.90;;;;;;5073863;28;20241;-74
2024/02/14 07:46:19;;;;;;;17.52;13.68;;;9.50;99.90;;;;;;5073550;28;20216;-75
2024/02/14 07:48:48;;;;;;;16.10;12.10;;;9.60;99.90;;;;;;5066759;28;20200;-73
2024/02/14 07:51:16;;;;;;;21.58;12.05;;;9.60;99.90;;;;;;5073408;28;20269;-72
2024/02/14 07:53:43;;;;;;;17.25;14.25;;;9.50;99.90;;;;;;5074537;28;20626;-74
2024/02/14 07:56:10;;;;;;;15.93;13.00;;;9.60;99.90;;;;;;5075132;28;20264;-76
2024/02/14 07:58:37;;;;;;;17.10;13.35;;;9.60;99.90;;;;;;5066516;28;20199;-73
2024/02/14 08:01:05;;;;;;;16.05;12.75;;;9.60;99.90;;;;;;5069455;28;20226;-75
2024/02/14 08:03:32;;;;;;;16.45;12.30;;;9.60;99.90;;;;;;5069765;28;20317;-74
2024/02/14 08:06:00;;;;;;;18.08;14.02;;;9.60;99.90;;;;;;5070188;28;20324;-74
2024/02/14 08:08:28;;;;;;;15.70;12.68;;;9.60;99.90;;;;;;5070150;28;20200;-74
2024/02/14 08:10:55;;;;;;;17.13;13.73;;;9.70;99.90;;;;;;5072650;28;20203;-75
2024/02/14 08:13:22;;;;;;;14.82;11.23;;;9.70;99.90;;;;;;5072311;28;20251;-76
2024/02/14 08:15:49;;;;;;;13.07;11.18;;;9.80;99.90;;;;;;5067181;28;20723;-73
2024/02/14 08:18:17;;;;;;;13.38;11.38;;;9.80;99.90;;;;;;5064673;28;20199;-74
2024/02/14 08:20:44;;;;;;;14.10;11.05;;;9.90;99.90;;;;;;5069280;28;20207;-76
2024/02/14 08:23:11;;;;;;;12.10;9.93;;;9.90;99.90;;;;;;5067272;28;20224;-74
2024/02/14 08:25:41;;;;;;;13.73;11.05;;;9.90;99.90;;;;;;5070574;28;20211;-74
2024/02/14 08:28:08;;;;;;;14.35;11.27;;;9.90;99.90;;;;;;5069427;28;20214;-74
2024/02/14 08:30:35;;;;;;;10.88;9.10;;;9.90;99.90;;;;;;5069607;28;20203;-75
2024/02/14 08:33:02;;;;;;;10.95;9.75;;;9.90;99.90;;;;;;5072045;28;20305;-73
2024/02/14 08:35:29;;;;;;;13.57;9.32;;;10.00;99.90;;;;;;5066115;28;20274;-75
2024/02/14 08:37:57;;;;;;;10.82;9.50;;;10.00;99.90;;;;;;5071731;28;20262;-76
2024/02/14 08:40:24;;;;;;;14.20;9.68;;;10.00;99.90;;;;;;5061706;28;20223;-74
2024/02/14 08:42:52;;;;;;;9.32;7.97;;;10.10;99.90;;;;;;5066754;28;20234;-73
2024/02/14 08:45:19;;;;;;;10.52;9.30;;;10.10;99.90;;;;;;5073518;28;20199;-74
2024/02/14 08:47:46;;;;;;;10.35;8.02;;;10.10;99.90;;;;;;5072583;28;20568;-73
2024/02/14 08:50:17;;;;;;;10.07;8.05;;;10.20;99.90;;;;;;5069769;28;20245;-74
2024/02/14 08:52:44;;;;;;;10.75;8.45;;;10.20;99.90;;;;;;5067216;28;20711;-76
2024/02/14 08:55:16;;;;;;;10.38;8.60;;;10.10;99.90;;;;;;5072752;28;20312;-74
2024/02/14 08:57:44;;;;;;;10.52;9.43;;;10.20;99.90;;;;;;5066779;28;20191;-75
2024/02/14 09:00:15;;;;;;;10.93;9.27;;;10.20;99.90;;;;;;5066570;28;20203;-74
2024/02/14 09:02:42;;;;;;;10.75;9.65;;;10.20;99.90;;;;;;5068581;28;20980;-75
2024/02/14 09:05:09;;;;;;;11.68;8.63;;;10.30;99.90;;;;;;5070686;28;20732;-75
2024/02/14 09:07:36;;;;;;;13.10;9.95;;;10.30;99.90;;;;;;5068240;28;20611;-76
2024/02/14 09:10:04;;;;;;;11.65;9.40;;;10.40;99.90;;;;;;5063420;28;20281;-74
2024/02/14 09:12:31;;;;;;;9.95;8.52;;;10.50;99.90;;;;;;5071984;28;20234;-73
2024/02/14 09:14:59;;;;;;;9.80;8.65;;;10.50;99.90;;;;;;5067477;28;20211;-75
2024/02/14 09:17:27;;;;;;;10.30;8.63;;;10.60;99.90;;;;;;5072938;28;20288;-73
2024/02/14 09:19:54;;;;;;;11.77;9.05;;;10.60;99.90;;;;;;5071295;28;20204;-76
2024/02/14 09:22:21;;;;;;;13.93;11.55;;;10.70;99.90;;;;;;5068826;28;20257;-73
2024/02/14 09:24:48;;;;;;;13.65;10.57;;;10.70;99.90;;;;;;5071633;28;20211;-75
2024/02/14 09:27:15;;;;;;;11.45;10.02;;;10.70;99.90;;;;;;5072158;28;20199;-74
2024/02/14 09:29:42;;;;;;;13.55;11.15;;;10.70;99.90;;;;;;5060111;28;20200;-75
2024/02/14 09:32:09;;;;;;;12.10;9.93;;;10.80;99.90;;;;;;5071535;28;20199;-76
2024/02/14 09:34:37;;;;;;;13.60;10.50;;;10.80;99.90;;;;;;5072790;28;20252;-75
2024/02/14 09:37:06;;;;;;;13.32;11.93;;;10.90;99.90;;;;;;5072361;28;20257;-74
2024/02/14 09:39:36;;;;;;;15.38;10.82;;;11.00;99.90;;;;;;5072854;28;20202;-74
2024/02/14 09:42:09;;;;;;;16.20;12.05;;;11.00;99.90;;;;;;5066100;28;20222;-75
2024/02/14 09:44:38;;;;;;;15.82;10.88;;;11.10;99.90;;;;;;5071566;28;20252;-75
2024/02/14 09:47:06;;;;;;;16.05;12.93;;;11.00;99.90;;;;;;5064146;28;20693;-74
2024/02/14 09:49:35;;;;;;;15.93;13.80;;;11.10;99.90;;;;;;5071698;28;20199;-74
2024/02/14 09:52:05;;;;;;;13.98;12.48;;;11.10;99.90;;;;;;5067446;28;20677;-75
2024/02/14 09:54:34;;;;;;;13.50;12.07;;;11.20;99.90;;;;;;5068609;28;20257;-74
2024/02/14 09:57:03;;;;;;;15.13;11.60;;;11.20;99.90;;;;;;5071514;28;20208;-75
2024/02/14 09:59:31;;;;;;;16.58;14.07;;;11.20;99.90;;;;;;5066291;28;20200;-76
2024/02/14 10:01:58;;;;;;;17.55;13.30;;;11.30;99.90;;;;;;5070752;28;20314;-76
2024/02/14 10:04:25;;;;;;;14.98;12.40;;;11.30;99.90;;;;;;5072625;28;20223;-75
2024/02/14 10:06:52;;;;;;;14.20;11.27;;;11.30;99.90;;;;;;5066738;28;20286;-75
2024/02/14 10:09:22;;;;;;;16.05;12.80;;;11.30;99.90;;;;;;5069993;28;20207;-75
2024/02/14 10:11:49;;;;;;;13.88;12.30;;;11.40;99.90;;;;;;5067554;28;20202;-75
2024/02/14 10:14:16;;;;;;;14.32;12.55;;;11.40;99.90;;;;;;5072100;28;20231;-75
2024/02/14 10:16:45;;;;;;;17.10;13.73;;;11.40;99.90;;;;;;5070278;28;20203;-76
2024/02/14 10:19:19;;;;;;;15.02;11.30;;;11.40;99.90;;;;;;5071765;28;20203;-74
2024/02/14 10:21:57;;;;;;;12.77;11.27;;;11.40;99.90;;;;;;5073776;28;20215;-74
2024/02/14 10:24:27;;;;;;;12.90;11.57;;;11.50;99.90;;;;;;5069412;28;20622;-73
2024/02/14 10:26:57;;;;;;;13.50;12.10;;;11.60;99.90;;;;;;5073313;28;20196;-73
2024/02/14 10:29:24;;;;;;;16.95;13.70;;;11.70;99.90;;;;;;5064692;28;20301;-73
2024/02/14 10:31:52;;;;;;;14.85;12.45;;;11.60;99.90;;;;;;5065316;28;20192;-73
2024/02/14 10:34:21;;;;;;;13.15;11.27;;;11.60;99.90;;;;;;5076090;28;20321;-76
2024/02/14 10:36:51;;;;;;;15.13;12.60;;;11.60;99.90;;;;;;5076239;28;20208;-76
2024/02/14 10:39:20;;;;;;;15.32;12.82;;;11.60;99.90;;;;;;5071250;28;20202;-75
2024/02/14 10:41:50;;;;;;;13.63;11.93;;;11.50;99.90;;;;;;5075683;28;20229;-74
2024/02/14 10:44:17;;;;;;;14.07;12.63;;;11.50;99.90;;;;;;5068845;28;20231;-76
2024/02/14 10:46:47;;;;;;;17.08;12.50;;;11.50;99.90;;;;;;5072807;28;20195;-74
2024/02/14 10:49:16;;;;;;;14.45;11.13;;;11.60;99.90;;;;;;5074158;28;20290;-74
2024/02/14 10:51:48;;;;;;;18.73;13.23;;;11.60;99.90;;;;;;5073003;28;20249;-75
2024/02/14 10:54:17;;;;;;;14.77;12.38;;;11.60;99.90;;;;;;5067424;28;20226;-77
2024/02/14 10:56:50;;;;;;;13.50;11.05;;;11.70;99.90;;;;;;5074495;28;20306;-76
2024/02/14 10:59:20;;;;;;;19.38;14.75;;;11.70;99.90;;;;;;5070608;28;20261;-74
2024/02/14 11:01:48;;;;;;;15.85;11.60;;;11.70;99.90;;;;;;5069523;28;20206;-77
2024/02/14 11:04:15;;;;;;;14.65;12.20;;;11.70;99.90;;;;;;5066756;28;20227;-75
2024/02/14 11:06:46;;;;;;;22.83;13.88;;;11.70;99.90;;;;;;5072083;28;20261;-76
2024/02/14 11:09:15;;;;;;;19.10;14.20;;;11.70;99.90;;;;;;5070258;28;20215;-74
2024/02/14 11:11:44;;;;;;;17.77;14.80;;;11.60;99.90;;;;;;5064708;28;20208;-73
2024/02/14 11:14:16;;;;;;;16.90;15.05;;;11.60;99.90;;;;;;5069634;28;20306;-74
2024/02/14 11:16:46;;;;;;;20.40;14.60;;;11.50;99.90;;;;;;5075057;28;20285;-72
2024/02/14 11:19:16;;;;;;;17.00;14.68;;;11.50;99.90;;;;;;5073836;28;20199;-74
2024/02/14 11:21:44;;;;;;;17.25;14.88;;;11.60;99.90;;;;;;5060675;28;20212;-73
2024/02/14 11:24:14;;;;;;;19.95;14.93;;;11.50;99.90;;;;;;5073412;28;20234;-73
2024/02/14 11:26:47;;;;;;;15.60;12.82;;;11.50;99.90;;;;;;5064605;28;20204;-75
2024/02/14 11:29:17;;;;;;;17.83;13.52;;;11.60;99.90;;;;;;5070187;28;20294;-75
2024/02/14 11:31:45;;;;;;;18.23;15.35;;;11.60;99.90;;;;;;5071760;28;20242;-75
2024/02/14 11:34:13;;;;;;;16.73;13.85;;;11.50;99.90;;;;;;5072696;28;20762;-76
2024/02/14 11:36:43;;;;;;;17.23;12.98;;;11.60;99.90;;;;;;5074176;28;20206;-76
2024/02/14 11:39:11;;;;;;;16.10;14.13;;;11.60;99.90;;;;;;5067666;28;20200;-74
2024/02/14 11:41:42;;;;;;;16.67;13.30;;;11.60;99.90;;;;;;5074489;28;20207;-72
2024/02/14 11:44:09;;;;;;;12.95;11.20;;;11.50;99.90;;;;;;5074239;28;20228;-74
2024/02/14 11:46:38;;;;;;;16.00;12.68;;;11.70;99.90;;;;;;5067091;28;20200;-77
2024/02/14 11:49:06;;;;;;;13.98;11.38;;;11.60;99.90;;;;;;5069728;28;20681;-74
2024/02/14 11:51:35;;;;;;;14.85;12.13;;;11.60;99.90;;;;;;5067219;28;20287;-75
2024/02/14 11:54:04;;;;;;;14.00;12.20;;;11.60;99.90;;;;;;5067810;28;20633;-76
2024/02/14 11:56:33;;;;;;;13.45;10.52;;;11.60;99.90;;;;;;5074879;28;20199;-73
2024/02/14 11:59:03;;;;;;;15.55;11.20;;;11.60;99.90;;;;;;5071933;28;20311;-73
2024/02/14 12:01:30;;;;;;;15.02;12.30;;;11.60;99.90;;;;;;5068443;28;20287;-75
2024/02/14 12:04:00;;;;;;;14.13;12.10;;;11.70;99.90;;;;;;5064202;28;20645;-73
2024/02/14 12:06:27;;;;;;;16.27;12.40;;;11.70;99.90;;;;;;5070663;28;20321;-76
2024/02/14 12:08:55;;;;;;;13.93;11.93;;;11.80;99.90;;;;;;5061340;28;20192;-74
2024/02/14 12:11:22;;;;;;;14.43;11.70;;;11.70;99.90;;;;;;5066797;28;20324;-75
2024/02/14 12:13:53;;;;;;;12.45;9.90;;;11.70;99.90;;;;;;5072502;28;20219;-75
2024/02/14 12:16:21;;;;;;;11.98;10.73;;;11.70;99.90;;;;;;5067342;28;20541;-75
2024/02/14 12:18:48;;;;;;;12.13;10.93;;;11.70;99.90;;;;;;5073400;28;20298;-75
2024/02/14 12:21:17;;;;;;;9.88;8.88;;;11.80;99.90;;;;;;5073018;28;20282;-73
2024/02/14 12:23:44;;;;;;;10.73;9.60;;;11.80;99.90;;;;;;5073768;28;20219;-76
2024/02/14 12:26:17;;;;;;;10.82;9.02;;;11.80;99.90;;;;;;5073684;28;20272;-75
2024/02/14 12:28:49;;;;;;;11.30;9.88;;;11.80;99.90;;;;;;5073430;28;20212;-75
2024/02/14 12:31:23;;;;;;;10.63;8.95;;;11.90;99.90;;;;;;5065371;28;20200;-74
2024/02/14 12:33:52;;;;;;;8.52;7.50;;;12.00;99.90;;;;;;5071544;28;20641;-74
2024/02/14 12:36:20;;;;;;;8.25;7.45;;;12.00;99.90;;;;;;5071319;28;20615;-76
2024/02/14 12:38:48;;;;;;;10.27;8.95;;;11.90;99.90;;;;;;5071086;28;20199;-77
2024/02/14 12:41:15;;;;;;;8.50;7.60;;;11.90;99.90;;;;;;5069258;28;20658;-75
2024/02/14 12:43:42;;;;;;;9.63;8.55;;;11.90;99.90;;;;;;5065240;28;20231;-74